Time;durP1;ratioP1;P1;durP2;ratioP2;P2;SDS_P1;SDS_P2;PMS_P1;PMS_P2;Temp;Humidity;BMP_temperature;BMP_pressure;BME280_temperature;BME280_humidity;BME280_pressure;Samples;Min_cycle;Max_cycle;Signal;HPM_P1;HPM_P2
2021/12/06 00:02:16;;;;;;;52.42;27.00;;;;;;;24.70;17.56;97168.03;4992933;28;20042;-84
2021/12/06 00:04:43;;;;;;;52.97;27.00;;;;;;;24.45;17.93;97165.41;4991552;28;20026;-84
2021/12/06 00:07:13;;;;;;;42.47;22.35;;;;;;;24.38;17.74;97166.44;4987920;28;20604;-83
2021/12/06 00:09:39;;;;;;;46.35;24.55;;;;;;;24.56;17.64;97158.13;4992179;28;20038;-84
2021/12/06 00:12:06;;;;;;;54.17;27.63;;;;;;;24.91;17.21;97164.41;4982200;28;20066;-83
2021/12/06 00:14:37;;;;;;;50.97;25.58;;;;;;;25.23;16.91;97165.91;4987833;28;20034;-83
2021/12/06 00:17:07;;;;;;;55.83;26.50;;;;;;;25.42;16.79;97168.31;4988379;28;20113;-83
2021/12/06 00:19:34;;;;;;;44.55;23.85;;;;;;;25.40;16.75;97170.81;4990540;28;20378;-84
2021/12/06 00:22:02;;;;;;;36.45;20.08;;;;;;;25.32;16.92;97165.97;4988050;28;20026;-83
2021/12/06 00:24:28;;;;;;;46.05;24.52;;;;;;;24.94;17.29;97159.91;4989790;28;20482;-84
2021/12/06 00:26:55;;;;;;;46.47;23.77;;;;;;;24.80;17.16;97160.47;4989089;28;20084;-84
2021/12/06 00:29:21;;;;;;;48.50;24.48;;;;;;;24.71;17.42;97158.38;4988902;28;20034;-84
2021/12/06 00:31:47;;;;;;;48.33;26.73;;;;;;;24.96;17.20;97161.00;4989172;28;20038;-84
2021/12/06 00:34:17;;;;;;;51.42;25.55;;;;;;;25.04;17.18;97161.50;4988891;28;20474;-83
2021/12/06 00:36:53;;;;;;;43.20;23.35;;;;;;;25.07;17.16;97166.97;4990628;28;20037;-83
2021/12/06 00:39:21;;;;;;;48.15;23.92;;;;;;;25.24;17.09;97159.84;4963683;28;20639;-84
2021/12/06 00:41:48;;;;;;;49.78;25.77;;;;;;;24.91;17.10;97160.81;4990630;28;20125;-83
2021/12/06 00:44:15;;;;;;;46.75;23.73;;;;;;;24.57;17.49;97170.16;4990309;28;20521;-83
2021/12/06 00:46:41;;;;;;;42.53;22.88;;;;;;;24.48;17.54;97170.09;4991630;28;20438;-83
2021/12/06 00:49:09;;;;;;;47.92;24.40;;;;;;;24.48;17.52;97167.28;4987801;28;20066;-83
2021/12/06 00:51:36;;;;;;;46.40;23.95;;;;;;;24.51;17.73;97163.53;4981081;28;20050;-83
2021/12/06 00:54:02;;;;;;;49.63;25.02;;;;;;;24.76;17.52;97160.63;4985930;28;20038;-83
2021/12/06 00:56:29;;;;;;;54.83;27.90;;;;;;;24.77;17.49;97158.56;4982526;28;20031;-83
2021/12/06 00:58:55;;;;;;;42.30;21.30;;;;;;;24.59;17.58;97150.81;4990589;28;20026;-83
2021/12/06 01:01:21;;;;;;;49.10;26.02;;;;;;;24.60;17.38;97155.19;4985874;28;20042;-83
2021/12/06 01:03:48;;;;;;;48.60;25.15;;;;;;;24.95;17.07;97156.63;4985245;28;20486;-83
2021/12/06 01:06:14;;;;;;;43.67;22.55;;;;;;;25.26;16.74;97159.38;4989405;28;20486;-82
2021/12/06 01:08:41;;;;;;;44.95;24.08;;;;;;;25.45;16.44;97157.44;4989302;28;20026;-83
2021/12/06 01:11:09;;;;;;;41.42;22.33;;;;;;;25.59;16.59;97166.03;4989526;28;20109;-83
2021/12/06 01:13:36;;;;;;;48.85;26.00;;;;;;;25.69;16.61;97156.38;4989161;28;20042;-83
2021/12/06 01:16:03;;;;;;;44.95;22.65;;;;;;;25.73;16.54;97173.09;4991430;28;20105;-83
2021/12/06 01:18:30;;;;;;;46.95;24.75;;;;;;;25.75;16.31;97168.56;4992791;28;20089;-84
2021/12/06 01:21:13;;;;;;;41.03;23.27;;;;;;;25.72;16.46;97163.09;4991080;28;20038;-84
2021/12/06 01:23:49;;;;;;;39.80;22.25;;;;;;;25.70;16.26;97165.59;4992070;28;20058;-84
2021/12/06 01:26:43;;;;;;;39.08;21.15;;;;;;;25.69;16.46;97169.66;4988641;28;20109;-84
2021/12/06 01:40:12;;;;;;;36.65;20.40;;;;;;;25.23;16.72;97147.03;4990764;28;20054;-83
2021/12/06 01:42:38;;;;;;;37.15;20.63;;;;;;;25.20;16.88;97138.78;4991768;28;20066;-83
2021/12/06 01:45:06;;;;;;;38.28;22.65;;;;;;;25.41;16.82;97135.84;4990850;28;20036;-83
2021/12/06 01:47:35;;;;;;;44.33;23.40;;;;;;;25.57;16.64;97131.22;4991015;28;20152;-83
2021/12/06 01:50:17;;;;;;;36.97;20.88;;;;;;;25.66;16.17;97139.66;4992699;28;20055;-83
2021/12/06 01:52:47;;;;;;;34.05;20.00;;;;;;;25.73;16.45;97139.34;4987944;28;20109;-83
2021/12/06 01:55:23;;;;;;;39.75;21.05;;;;;;;25.80;16.36;97147.47;4983809;28;20054;-83
2021/12/06 01:57:50;;;;;;;45.05;23.05;;;;;;;25.80;16.30;97148.25;4990518;28;20077;-83
2021/12/06 02:00:36;;;;;;;48.08;26.58;;;;;;;25.74;16.43;97149.34;4986125;28;20038;-83
2021/12/06 02:03:03;;;;;;;36.70;19.95;;;;;;;25.75;16.50;97151.69;4970592;28;20042;-83
2021/12/06 02:05:30;;;;;;;34.88;18.98;;;;;;;25.56;16.28;97155.72;4985732;28;20545;-83
2021/12/06 02:07:56;;;;;;;41.17;23.35;;;;;;;25.43;16.58;97157.88;4989174;28;20036;-83
2021/12/06 02:10:23;;;;;;;36.78;20.45;;;;;;;25.50;16.56;97156.81;4988951;28;21929;-83
2021/12/06 02:12:52;;;;;;;37.28;20.25;;;;;;;25.52;16.54;97166.34;4989398;28;20041;-82
2021/12/06 02:15:37;;;;;;;39.83;21.15;;;;;;;25.55;16.72;97167.44;4972211;28;20043;-83
2021/12/06 02:18:12;;;;;;;35.25;19.02;;;;;;;25.31;16.78;97172.81;4987409;28;20070;-82
2021/12/06 02:20:48;;;;;;;39.28;20.95;;;;;;;24.90;17.14;97176.88;4986761;28;20053;-82
2021/12/06 02:23:15;;;;;;;45.00;22.98;;;;;;;24.88;17.49;97173.00;4986464;28;20089;-83
2021/12/06 02:25:42;;;;;;;36.03;20.48;;;;;;;24.80;17.27;97178.09;4987901;28;20109;-82
2021/12/06 02:28:08;;;;;;;46.03;20.90;;;;;;;24.58;17.42;97168.88;4986467;28;20039;-83
2021/12/06 02:30:34;;;;;;;37.28;20.92;;;;;;;24.45;17.89;97171.00;4987519;28;20045;-83
2021/12/06 02:33:01;;;;;;;39.47;21.55;;;;;;;24.54;17.53;97162.63;4971741;28;20034;-82
2021/12/06 02:35:27;;;;;;;39.25;21.88;;;;;;;24.40;17.86;97158.34;4987222;28;20477;-83
2021/12/06 02:37:54;;;;;;;37.65;19.52;;;;;;;24.37;17.65;97150.84;4991051;28;20105;-82
2021/12/06 02:40:29;;;;;;;36.70;20.77;;;;;;;24.33;17.68;97155.03;4990774;28;20038;-82
2021/12/06 02:42:56;;;;;;;37.75;20.75;;;;;;;24.35;17.57;97166.56;4988544;28;20026;-83
2021/12/06 02:45:25;;;;;;;38.33;21.02;;;;;;;24.32;17.78;97175.94;4987911;28;20343;-82
2021/12/06 02:47:53;;;;;;;35.90;20.17;;;;;;;24.60;17.30;97186.06;4986906;28;20030;-81
2021/12/06 02:50:25;;;;;;;37.05;19.48;;;;;;;24.84;17.37;97189.97;4987234;28;20084;-82
2021/12/06 02:52:51;;;;;;;34.60;18.33;;;;;;;25.03;17.23;97177.56;4986831;28;20037;-82
2021/12/06 02:55:37;;;;;;;36.70;20.77;;;;;;;25.18;16.95;97186.22;4986970;28;20034;-82
2021/12/06 02:58:16;;;;;;;34.30;18.15;;;;;;;25.36;16.94;97187.06;4988965;28;20022;-82
2021/12/06 03:00:52;;;;;;;36.55;21.08;;;;;;;25.38;16.78;97181.75;4987528;28;20494;-82
2021/12/06 03:03:19;;;;;;;37.63;19.88;;;;;;;25.23;17.05;97175.13;4986649;28;20026;-82
2021/12/06 03:05:46;;;;;;;48.97;25.88;;;;;;;25.14;16.94;97175.09;4989440;28;20042;-82
2021/12/06 03:08:12;;;;;;;40.35;21.40;;;;;;;25.17;16.96;97174.19;4990728;28;20037;-83
2021/12/06 03:10:39;;;;;;;41.20;21.38;;;;;;;25.07;16.87;97178.22;4982837;28;20443;-83
2021/12/06 03:13:05;;;;;;;36.03;19.73;;;;;;;25.14;16.92;97166.69;4985618;28;20034;-83
2021/12/06 03:15:32;;;;;;;37.88;19.58;;;;;;;25.04;16.83;97165.06;4986809;28;20437;-83
2021/12/06 03:17:58;;;;;;;34.42;19.23;;;;;;;25.15;16.99;97171.06;4986987;28;20054;-83
2021/12/06 03:20:25;;;;;;;36.85;20.10;;;;;;;24.95;17.19;97158.66;4986210;28;20031;-82
2021/12/06 03:22:51;;;;;;;34.53;17.98;;;;;;;24.61;17.44;97162.38;4983401;28;20038;-82
2021/12/06 03:25:18;;;;;;;32.10;18.50;;;;;;;24.22;17.89;97151.84;4987279;28;20035;-82
2021/12/06 03:27:45;;;;;;;30.45;17.10;;;;;;;24.16;18.05;97150.84;4986694;28;20034;-83
2021/12/06 03:30:13;;;;;;;35.42;17.98;;;;;;;24.39;17.81;97141.97;4984026;28;20029;-82
2021/12/06 03:32:39;;;;;;;29.77;16.30;;;;;;;24.62;17.72;97144.28;4986985;28;20035;-82
2021/12/06 03:35:06;;;;;;;30.20;16.20;;;;;;;24.64;17.83;97136.94;4987022;28;20030;-82
2021/12/06 03:37:32;;;;;;;34.80;18.25;;;;;;;24.71;17.18;97136.69;4985320;28;20042;-82
2021/12/06 03:39:58;;;;;;;33.85;18.02;;;;;;;24.63;17.49;97140.22;4989099;28;20031;-83
2021/12/06 03:42:25;;;;;;;32.00;15.98;;;;;;;24.33;17.83;97138.19;4984676;28;20101;-83
2021/12/06 03:44:52;;;;;;;32.28;18.45;;;;;;;24.19;17.99;97152.75;4990122;28;20038;-83
2021/12/06 03:47:28;;;;;;;38.00;19.27;;;;;;;24.41;17.79;97154.28;4986422;28;20034;-82
2021/12/06 03:49:54;;;;;;;30.77;16.27;;;;;;;24.79;17.18;97148.44;4965832;28;20050;-82
2021/12/06 03:52:21;;;;;;;32.42;17.42;;;;;;;25.09;17.07;97149.66;4981703;28;20043;-82
2021/12/06 03:54:49;;;;;;;32.63;17.42;;;;;;;25.30;16.75;97148.78;4964214;28;20046;-82
2021/12/06 03:57:16;;;;;;;31.58;17.83;;;;;;;25.46;16.89;97153.38;4968582;28;20126;-83
2021/12/06 03:59:42;;;;;;;36.25;20.92;;;;;;;25.54;16.91;97151.81;4969739;28;20470;-82
2021/12/06 04:02:08;;;;;;;38.25;20.15;;;;;;;25.53;16.58;97150.28;4962925;28;20054;-82
2021/12/06 04:04:35;;;;;;;38.30;20.08;;;;;;;25.58;16.55;97155.28;4969657;28;20035;-83
2021/12/06 04:07:02;;;;;;;40.10;20.88;;;;;;;25.57;16.47;97145.28;4968586;28;20086;-83
2021/12/06 04:09:28;;;;;;;41.63;21.80;;;;;;;25.53;16.84;97145.44;4968769;28;20098;-83
2021/12/06 04:11:54;;;;;;;46.25;21.02;;;;;;;25.53;16.84;97161.50;4969865;28;20035;-83
2021/12/06 04:14:20;;;;;;;34.97;20.67;;;;;;;25.58;16.67;97169.34;4971510;28;20027;-83
2021/12/06 04:16:46;;;;;;;45.15;23.60;;;;;;;25.32;16.74;97177.97;4973463;28;20046;-83
2021/12/06 04:19:13;;;;;;;42.75;21.15;;;;;;;24.80;17.47;97166.88;4969314;28;20039;-83
2021/12/06 04:21:43;;;;;;;37.22;19.65;;;;;;;24.55;17.57;97169.81;4963856;28;20066;-83
2021/12/06 04:24:10;;;;;;;35.57;19.60;;;;;;;24.76;17.37;97185.88;4969431;28;20030;-83
2021/12/06 04:26:36;;;;;;;31.40;17.73;;;;;;;25.02;17.28;97195.66;4971164;28;20486;-83
2021/12/06 04:29:03;;;;;;;36.10;17.75;;;;;;;25.03;17.17;97191.63;4970621;28;20138;-83
2021/12/06 04:31:44;;;;;;;39.63;21.25;;;;;;;24.99;17.18;97205.03;4987297;28;20387;-83
2021/12/06 04:34:10;;;;;;;39.50;20.45;;;;;;;24.97;17.20;97213.09;4970575;28;20047;-81
2021/12/06 04:36:38;;;;;;;35.83;20.13;;;;;;;24.65;17.19;97185.47;4969809;28;20031;-83
2021/12/06 04:39:08;;;;;;;38.72;20.90;;;;;;;23.75;18.19;97180.75;4971840;28;20082;-83
2021/12/06 04:41:34;;;;;;;33.88;19.27;;;;;;;23.65;18.56;97184.69;4960758;28;20035;-83
2021/12/06 04:44:00;;;;;;;40.55;22.48;;;;;;;23.75;18.42;97194.75;4967121;28;20038;-82
2021/12/06 04:46:26;;;;;;;38.47;20.25;;;;;;;23.86;18.39;97206.38;4968176;28;20026;-82
2021/12/06 04:48:53;;;;;;;44.00;24.15;;;;;;;23.64;18.28;97213.16;4968286;28;20407;-82
2021/12/06 04:51:19;;;;;;;34.30;18.55;;;;;;;23.46;18.61;97199.75;4981805;28;20034;-83
2021/12/06 04:53:46;;;;;;;35.25;17.90;;;;;;;23.61;18.68;97194.44;4968448;28;20486;-82
2021/12/06 04:56:18;;;;;;;35.95;17.17;;;;;;;24.09;18.20;97208.00;4966918;28;20039;-83
2021/12/06 04:58:52;;;;;;;37.60;18.88;;;;;;;24.60;17.61;97216.91;4971669;28;20109;-83
2021/12/06 05:01:22;;;;;;;32.00;16.63;;;;;;;25.00;17.17;97217.81;4966341;28;20030;-82
2021/12/06 05:03:48;;;;;;;38.00;19.00;;;;;;;25.08;16.98;97215.50;4966889;28;20505;-83
2021/12/06 05:06:22;;;;;;;34.17;19.42;;;;;;;25.15;16.89;97220.84;4971415;28;20537;-82
2021/12/06 05:08:54;;;;;;;36.95;19.65;;;;;;;25.08;16.93;97221.91;4965724;28;20038;-83
2021/12/06 05:11:23;;;;;;;35.00;18.70;;;;;;;25.14;17.24;97234.09;4969108;28;20114;-82
2021/12/06 05:13:52;;;;;;;39.70;19.77;;;;;;;25.28;17.11;97239.16;4968671;28;20222;-83
2021/12/06 05:16:18;;;;;;;38.95;19.92;;;;;;;25.35;16.77;97240.91;4969277;28;20498;-82
2021/12/06 05:18:45;;;;;;;36.15;19.40;;;;;;;25.44;16.79;97243.75;4968509;28;20118;-82
2021/12/06 05:21:11;;;;;;;32.55;16.60;;;;;;;25.49;16.51;97234.72;4982990;28;20042;-81
2021/12/06 05:23:37;;;;;;;40.45;19.15;;;;;;;24.93;17.14;97239.75;4964097;28;20501;-81
2021/12/06 05:26:05;;;;;;;64.53;27.67;;;;;;;24.54;17.47;97249.63;4962593;28;20030;-81
2021/12/06 05:28:37;;;;;;;47.53;22.70;;;;;;;24.30;17.64;97249.31;4967165;28;20058;-81
2021/12/06 05:31:12;;;;;;;43.50;20.75;;;;;;;24.47;17.64;97250.69;4968849;28;20415;-82
2021/12/06 05:33:40;;;;;;;48.35;24.83;;;;;;;24.16;17.83;97257.44;4961310;28;20069;-81
2021/12/06 05:36:06;;;;;;;42.53;22.02;;;;;;;23.99;18.10;97254.75;4967188;28;20045;-82
2021/12/06 05:38:32;;;;;;;49.97;23.33;;;;;;;24.01;18.06;97246.69;4968086;28;20023;-80
2021/12/06 05:40:59;;;;;;;39.47;21.50;;;;;;;24.02;18.18;97245.47;4965443;28;20058;-83
2021/12/06 05:43:25;;;;;;;42.17;21.77;;;;;;;24.07;17.99;97246.94;4962420;28;20126;-83
2021/12/06 05:45:52;;;;;;;34.20;18.42;;;;;;;23.86;18.25;97245.63;4977960;28;20054;-82
2021/12/06 05:48:19;;;;;;;38.75;21.17;;;;;;;23.96;18.16;97252.09;4973278;28;20054;-83
2021/12/06 05:50:47;;;;;;;39.25;20.58;;;;;;;24.03;18.00;97249.84;4991292;28;20030;-83
2021/12/06 05:53:15;;;;;;;36.92;18.50;;;;;;;24.10;18.06;97251.63;4985254;28;20478;-81
2021/12/06 05:55:42;;;;;;;39.95;20.70;;;;;;;24.27;17.91;97246.63;4988647;28;20428;-82
2021/12/06 05:58:10;;;;;;;39.55;19.38;;;;;;;24.54;17.69;97253.22;4990562;28;20037;-83
2021/12/06 06:00:37;;;;;;;39.53;19.85;;;;;;;24.81;17.34;97246.28;4988455;28;20450;-82
2021/12/06 06:03:05;;;;;;;38.67;19.92;;;;;;;24.87;17.30;97242.41;4987328;28;20039;-82
2021/12/06 06:05:33;;;;;;;37.20;19.95;;;;;;;24.70;17.39;97241.81;4998240;28;20049;-82
2021/12/06 06:07:59;;;;;;;31.38;16.35;;;;;;;24.70;17.53;97255.84;4991263;28;20030;-82
2021/12/06 06:10:25;;;;;;;33.65;18.00;;;;;;;24.71;17.47;97254.59;4988852;28;20026;-81
2021/12/06 06:12:52;;;;;;;39.63;20.23;;;;;;;24.90;17.42;97255.50;4986289;28;20116;-82
2021/12/06 06:15:18;;;;;;;37.58;18.92;;;;;;;24.73;17.54;97256.94;4988299;28;20448;-81
2021/12/06 06:17:44;;;;;;;35.25;18.42;;;;;;;24.67;17.46;97262.34;4983327;28;20093;-81
2021/12/06 06:20:19;;;;;;;37.67;19.42;;;;;;;24.66;17.55;97263.63;4987525;28;20033;-80
2021/12/06 06:22:46;;;;;;;35.45;18.00;;;;;;;24.88;17.50;97268.47;4986913;28;20049;-81
2021/12/06 06:25:12;;;;;;;40.90;21.17;;;;;;;25.09;17.08;97267.63;4988089;28;20054;-82
2021/12/06 06:27:38;;;;;;;41.72;20.95;;;;;;;25.13;17.17;97271.88;4986225;28;20041;-84
2021/12/06 06:30:06;;;;;;;42.15;21.30;;;;;;;25.20;16.98;97273.63;4987846;28;20770;-81
2021/12/06 06:32:32;;;;;;;38.50;19.80;;;;;;;25.33;17.05;97279.91;4986275;28;20417;-81
2021/12/06 06:34:59;;;;;;;34.60;18.75;;;;;;;25.37;16.96;97278.53;4987894;28;20133;-80
2021/12/06 06:37:25;;;;;;;34.85;18.10;;;;;;;25.47;16.69;97287.03;4988161;28;20026;-81
2021/12/06 06:39:51;;;;;;;43.13;21.40;;;;;;;25.50;16.64;97297.34;4987761;28;20525;-80
2021/12/06 06:42:22;;;;;;;37.90;19.13;;;;;;;25.40;16.95;97304.94;4987057;28;20034;-80
2021/12/06 06:44:51;;;;;;;36.88;18.35;;;;;;;25.43;16.72;97309.63;4989206;28;20034;-80
2021/12/06 06:47:17;;;;;;;38.70;18.30;;;;;;;25.38;16.84;97307.44;4988869;28;20026;-80
2021/12/06 06:49:44;;;;;;;46.28;22.92;;;;;;;25.15;16.86;97310.75;4980940;28;20077;-81
2021/12/06 06:52:10;;;;;;;32.42;16.27;;;;;;;24.61;17.67;97311.91;4986982;28;20038;-81
2021/12/06 06:54:37;;;;;;;39.45;19.73;;;;;;;24.39;17.74;97324.34;4988442;28;20446;-80
2021/12/06 06:57:03;;;;;;;44.67;22.60;;;;;;;24.00;18.19;97320.06;4980284;28;20130;-81
2021/12/06 06:59:29;;;;;;;32.33;18.17;;;;;;;23.89;18.49;97322.44;4984763;28;20039;-80
2021/12/06 07:01:56;;;;;;;35.22;19.08;;;;;;;23.94;18.13;97336.66;4985114;28;20125;-80
2021/12/06 07:04:22;;;;;;;42.20;22.65;;;;;;;24.20;18.05;97328.25;4980812;28;20141;-80
2021/12/06 07:06:49;;;;;;;35.15;19.38;;;;;;;24.23;18.00;97332.91;4984022;28;20441;-81
2021/12/06 07:09:15;;;;;;;38.40;18.92;;;;;;;24.26;18.07;97346.03;4986881;28;20042;-80
2021/12/06 07:11:44;;;;;;;38.72;20.50;;;;;;;23.93;18.04;97334.31;4985727;28;20074;-81
2021/12/06 07:14:11;;;;;;;34.90;19.13;;;;;;;23.92;18.33;97339.13;4983062;28;20038;-81
2021/12/06 07:16:38;;;;;;;31.45;18.00;;;;;;;24.07;18.21;97333.88;4981162;28;20026;-80
2021/12/06 07:19:04;;;;;;;42.47;22.58;;;;;;;24.12;18.01;97326.91;4989285;28;20069;-80
2021/12/06 07:21:30;;;;;;;35.80;18.65;;;;;;;24.11;17.94;97330.97;4986258;28;20047;-80
2021/12/06 07:23:56;;;;;;;39.55;18.83;;;;;;;24.34;18.00;97342.53;4987665;28;20039;-80
2021/12/06 07:26:23;;;;;;;33.13;17.65;;;;;;;24.66;17.48;97333.00;4983738;28;20031;-80
2021/12/06 07:28:51;;;;;;;35.35;18.42;;;;;;;25.00;17.13;97340.59;4985842;28;20093;-81
2021/12/06 07:31:18;;;;;;;37.95;20.15;;;;;;;25.14;17.11;97346.47;4987192;28;20072;-80
2021/12/06 07:33:47;;;;;;;37.22;20.55;;;;;;;24.87;17.30;97345.50;4986766;28;20030;-80
2021/12/06 07:36:13;;;;;;;35.28;18.42;;;;;;;24.70;17.40;97344.88;4984523;28;20053;-80
2021/12/06 07:38:41;;;;;;;36.72;17.92;;;;;;;24.97;17.40;97347.91;4990807;28;20037;-80
2021/12/06 07:41:17;;;;;;;39.38;20.50;;;;;;;25.25;17.04;97348.91;4986563;28;20042;-81
2021/12/06 07:43:43;;;;;;;37.20;20.23;;;;;;;25.32;17.12;97346.56;4985163;28;20081;-80
2021/12/06 07:46:10;;;;;;;44.78;22.52;;;;;;;25.39;16.93;97354.72;4992756;28;20115;-81
2021/12/06 07:48:38;;;;;;;47.10;24.10;;;;;;;24.89;17.25;97349.44;4992318;28;20125;-80
2021/12/06 07:51:05;;;;;;;46.38;24.88;;;;;;;24.50;17.53;97347.22;4992476;28;20046;-80
2021/12/06 07:53:33;;;;;;;42.25;22.80;;;;;;;24.12;17.93;97352.13;4991232;28;20026;-80
2021/12/06 07:56:00;;;;;;;38.33;20.27;;;;;;;23.96;18.35;97355.84;4988452;28;20034;-80
2021/12/06 07:58:27;;;;;;;35.17;19.42;;;;;;;23.94;18.21;97353.47;4992852;28;20034;-80
2021/12/06 08:00:55;;;;;;;35.25;19.02;;;;;;;24.16;18.05;97350.00;4987304;28;20061;-80
2021/12/06 08:03:23;;;;;;;33.38;17.98;;;;;;;24.50;17.68;97358.44;4991797;28;20031;-80
2021/12/06 08:05:52;;;;;;;33.85;18.73;;;;;;;24.78;17.58;97354.66;4991820;28;20027;-80
2021/12/06 08:08:24;;;;;;;34.83;18.83;;;;;;;24.93;17.35;97350.06;4994003;28;20034;-80
2021/12/06 08:11:04;;;;;;;36.17;17.95;;;;;;;24.97;17.46;97358.38;4991645;28;20112;-80
2021/12/06 08:13:33;;;;;;;39.78;21.48;;;;;;;24.89;17.39;97348.63;4985400;28;20490;-81
2021/12/06 08:16:02;;;;;;;38.60;20.15;;;;;;;24.35;17.87;97346.91;4987869;28;20038;-80
2021/12/06 08:18:28;;;;;;;41.30;20.13;;;;;;;24.16;17.87;97352.78;4989120;28;20030;-80
2021/12/06 08:20:56;;;;;;;37.33;20.08;;;;;;;24.41;17.75;97350.72;4969090;28;20065;-80
2021/12/06 08:23:23;;;;;;;39.90;22.17;;;;;;;24.52;17.90;97361.56;4983292;28;20049;-81
2021/12/06 08:25:51;;;;;;;38.42;20.67;;;;;;;24.21;17.99;97355.03;4984425;28;20030;-81
2021/12/06 08:28:18;;;;;;;35.35;19.92;;;;;;;24.21;17.97;97360.66;4988157;28;20030;-81
2021/12/06 08:30:44;;;;;;;37.50;20.00;;;;;;;24.26;18.17;97360.06;4988028;28;20031;-81
2021/12/06 08:33:12;;;;;;;37.22;20.50;;;;;;;24.32;18.13;97361.09;4988558;28;20030;-81
2021/12/06 08:35:45;;;;;;;44.53;22.92;;;;;;;23.98;18.26;97368.19;4990308;28;20066;-81
2021/12/06 08:38:13;;;;;;;38.25;20.58;;;;;;;23.95;18.37;97365.47;4989609;28;20022;-81
2021/12/06 08:40:42;;;;;;;40.95;20.95;;;;;;;24.19;18.37;97363.91;4987705;28;20466;-80
2021/12/06 08:43:09;;;;;;;29.40;15.93;;;;;;;23.95;18.50;97366.28;4987322;28;20548;-80
2021/12/06 08:45:36;;;;;;;32.92;16.90;;;;;;;24.32;18.46;97367.47;4991556;28;20030;-81
2021/12/06 08:48:02;;;;;;;33.58;18.38;;;;;;;24.46;18.15;97374.59;4981178;28;20042;-81
2021/12/06 08:50:30;;;;;;;28.05;15.30;;;;;;;24.65;17.89;97379.16;4970245;28;20445;-80
2021/12/06 08:52:57;;;;;;;34.90;18.08;;;;;;;24.76;17.64;97376.78;4990005;28;20073;-80
2021/12/06 08:55:24;;;;;;;34.47;18.38;;;;;;;24.59;17.76;97380.97;4990820;28;20034;-80
2021/12/06 08:57:50;;;;;;;29.58;15.60;;;;;;;24.42;18.14;97387.97;4989041;28;20450;-80
2021/12/06 09:00:25;;;;;;;26.23;13.60;;;;;;;24.17;18.45;97393.66;4990575;28;20041;-81
2021/12/06 09:02:51;;;;;;;24.42;13.65;;;;;;;23.72;18.70;97385.44;4987789;28;20038;-80
2021/12/06 09:05:18;;;;;;;28.27;15.35;;;;;;;23.60;18.93;97389.03;4989071;28;20165;-81
2021/12/06 09:07:44;;;;;;;30.63;15.68;;;;;;;22.81;19.71;97386.13;4986837;28;20034;-81
2021/12/06 09:10:12;;;;;;;26.38;13.32;;;;;;;22.61;19.78;97389.84;4989980;28;20046;-80
2021/12/06 09:12:39;;;;;;;24.92;12.52;;;;;;;22.78;19.80;97392.63;4986429;28;20050;-81
2021/12/06 09:15:13;;;;;;;23.10;11.32;;;;;;;22.91;19.69;97393.47;4988978;28;20486;-81
2021/12/06 09:17:40;;;;;;;23.75;12.82;;;;;;;23.30;19.40;97396.72;4989385;28;20034;-81
2021/12/06 09:20:09;;;;;;;23.20;11.93;;;;;;;23.53;18.83;97398.44;4984313;28;20490;-81
2021/12/06 09:22:35;;;;;;;23.65;12.15;;;;;;;23.36;19.19;97402.59;4984950;28;20372;-81
2021/12/06 09:25:02;;;;;;;26.02;13.73;;;;;;;22.71;19.84;97404.03;4991201;28;20030;-81
2021/12/06 09:27:29;;;;;;;25.08;12.93;;;;;;;22.67;19.88;97399.31;4982369;28;20493;-81
2021/12/06 09:29:57;;;;;;;23.15;11.60;;;;;;;22.67;19.82;97404.91;4985513;28;20053;-81
2021/12/06 09:32:24;;;;;;;19.60;10.60;;;;;;;22.79;19.90;97402.59;4985969;28;20041;-81
2021/12/06 09:34:54;;;;;;;25.60;12.13;;;;;;;22.43;20.04;97399.91;4986295;28;20038;-81
2021/12/06 09:37:20;;;;;;;18.58;10.27;;;;;;;22.49;20.24;97400.97;4983134;28;20053;-81
2021/12/06 09:39:47;;;;;;;23.40;11.98;;;;;;;22.68;19.85;97402.91;4988311;28;20101;-81
2021/12/06 09:42:14;;;;;;;21.95;10.65;;;;;;;22.37;20.29;97401.69;4991031;28;20034;-82
2021/12/06 09:44:40;;;;;;;25.52;12.05;;;;;;;22.24;20.54;97401.59;4990093;28;20485;-81
2021/12/06 09:47:06;;;;;;;23.58;12.57;;;;;;;22.05;20.53;97398.91;4990089;28;20113;-81
2021/12/06 09:49:33;;;;;;;24.55;14.30;;;;;;;21.90;20.58;97404.84;5002507;28;20409;-81
2021/12/06 09:52:05;;;;;;;18.70;10.25;;;;;;;21.64;21.26;97411.41;4986878;28;20043;-81
2021/12/06 09:54:37;;;;;;;25.27;12.85;;;;;;;21.73;21.21;97413.59;4985632;28;20486;-81
2021/12/06 09:57:05;;;;;;;14.70;9.25;;;;;;;22.15;20.69;97404.22;4990519;28;20058;-81
2021/12/06 09:59:33;;;;;;;17.50;10.18;;;;;;;22.66;19.97;97385.75;4986929;28;20022;-81
2021/12/06 10:02:04;;;;;;;18.88;9.75;;;;;;;22.41;20.28;97400.38;4986445;28;20462;-81
2021/12/06 10:04:32;;;;;;;;;;;;;;;22.36;20.30;97392.50;4990173;28;20043;-81
2021/12/06 10:06:59;;;;;;;15.10;8.63;;;;;;;22.54;20.05;97397.66;4983968;28;19924;-81
2021/12/06 10:09:27;;;;;;;17.92;9.35;;;;;;;22.17;20.63;97389.81;4987210;28;20030;-81
2021/12/06 10:11:57;;;;;;;20.90;8.85;;;;;;;22.60;20.16;97387.47;4971084;28;20034;-81
2021/12/06 10:14:23;;;;;;;14.30;7.35;;;;;;;22.20;20.38;97391.72;4988405;28;20390;-82
2021/12/06 10:16:49;;;;;;;17.92;10.05;;;;;;;22.85;19.99;97390.41;4981402;28;20031;-82
2021/12/06 10:19:16;;;;;;;18.80;10.63;;;;;;;22.18;20.36;97383.78;4983973;28;20034;-82
2021/12/06 10:21:43;;;;;;;15.52;9.05;;;;;;;21.79;21.01;97386.72;4987154;28;20129;-82
2021/12/06 10:24:15;;;;;;;15.63;8.63;;;;;;;21.77;21.17;97389.19;4984026;28;20041;-82
2021/12/06 10:26:41;;;;;;;16.13;8.82;;;;;;;21.63;21.12;97393.09;4986305;28;20035;-81
2021/12/06 10:29:10;;;;;;;18.45;10.35;;;;;;;21.53;21.17;97396.09;4986714;28;20062;-81
2021/12/06 10:31:43;;;;;;;19.02;10.90;;;;;;;22.06;20.75;97384.47;4985555;28;20030;-81
2021/12/06 10:34:13;;;;;;;20.63;9.85;;;;;;;21.90;20.84;97387.28;4989117;28;20490;-81
2021/12/06 10:36:39;;;;;;;20.40;11.77;;;;;;;22.11;20.56;97385.97;4987932;28;20119;-81
2021/12/06 10:39:08;;;;;;;24.42;12.57;;;;;;;22.40;20.29;97389.63;4984578;28;20564;-81
2021/12/06 10:41:36;;;;;;;16.25;8.35;;;;;;;22.24;20.48;97387.63;4989356;28;20737;-81
2021/12/06 10:44:09;;;;;;;19.15;9.85;;;;;;;22.27;20.57;97399.94;4987556;28;20113;-81
2021/12/06 10:46:38;;;;;;;22.02;12.35;;;;;;;22.32;20.38;97403.00;4989969;28;20037;-81
2021/12/06 10:49:08;;;;;;;18.58;10.38;;;;;;;22.89;20.01;97404.31;4987557;28;20110;-81
2021/12/06 10:51:35;;;;;;;22.23;12.57;;;;;;;22.77;20.01;97408.63;4982763;28;20045;-81
2021/12/06 10:54:08;;;;;;;20.30;11.32;;;;;;;22.38;20.20;97403.28;4986016;28;20034;-81
2021/12/06 10:56:42;;;;;;;18.40;10.00;;;;;;;22.44;20.22;97401.50;4987497;28;20551;-82
2021/12/06 10:59:22;;;;;;;18.25;10.13;;;;;;;22.13;20.65;97406.69;4976699;28;20111;-82
2021/12/06 11:01:52;;;;;;;27.92;13.77;;;;;;;22.56;20.15;97407.19;4984925;28;20059;-81
2021/12/06 11:04:21;;;;;;;19.17;10.02;;;;;;;22.71;20.18;97406.81;4989840;28;20070;-81
2021/12/06 11:06:51;;;;;;;25.10;11.90;;;;;;;23.00;19.80;97407.59;4988010;28;20090;-81
2021/12/06 11:09:31;;;;;;;22.05;11.90;;;;;;;22.75;19.97;97411.09;4986279;28;20389;-82
2021/12/06 11:12:00;;;;;;;16.23;9.32;;;;;;;23.06;19.70;97408.63;4988720;28;20033;-81
2021/12/06 11:14:30;;;;;;;23.08;13.25;;;;;;;23.34;19.26;97410.59;4990660;28;20034;-82
2021/12/06 11:17:01;;;;;;;16.70;9.80;;;;;;;23.72;18.79;97405.88;4986934;28;20034;-81
2021/12/06 11:19:29;;;;;;;26.58;15.82;;;;;;;23.71;18.90;97409.13;4997793;28;20042;-82
2021/12/06 11:22:00;;;;;;;20.27;11.05;;;;;;;23.29;19.19;97409.13;4994735;28;20047;-81
2021/12/06 11:24:28;;;;;;;19.02;10.00;;;;;;;23.32;19.11;97407.47;4982153;28;20034;-82
2021/12/06 11:27:06;;;;;;;18.73;9.75;;;;;;;23.52;19.21;97412.91;4995265;28;20027;-81
2021/12/06 11:29:32;;;;;;;18.23;9.60;;;;;;;23.24;19.11;97408.91;4997207;28;20437;-82
2021/12/06 11:32:10;;;;;;;16.15;7.63;;;;;;;23.43;19.10;97405.19;4986665;28;20461;-82
2021/12/06 11:34:44;;;;;;;17.38;9.52;;;;;;;23.12;19.41;97409.66;4995666;28;20399;-82